Dan Macmillan — WDB9903 — position and weather

sailwx.info

Track history (hours):
 
Tides and Currents Weather Stations Pressure Air Temp Water Temp Dewpoint Dewpoint Depression Visibility Wind Speed Wind Dir Waves Ship Positions

Dan Macmillan

Owner: American River Transportation Company, St Louis, MO. More information available from US FCC via Universal Licensing System and Coast Guard Vessel Documentation Center.

Last reported at 2018-Jul-21 03:36 UTC. Time now 2018-Jul-22 12:49 UTC.
Position N 33°42' W 091°13'.

Length 63 m; draft 3 m.

Type: Towing. MMSI: 366984870.

Date/timePositionNaut miles runAvg speedWind from/ knotsBaromVisibWave heightAir tempDewpointWater temp
2018-Jul-21 03:36N 33°42' W 091°13'1 6.6
2018-Jul-21 03:30N 33°41' W 091°14'2 5.0
2018-Jul-21 03:00N 33°39' W 091°12'59 4.8
2018-Jul-20 14:35N 32°40' W 091°07'0 6.8
2018-Jul-20 14:30N 32°40' W 091°08'3 5.9
2018-Jul-20 14:00N 32°37' W 091°09'3 7.0
2018-Jul-20 13:30N 32°34' W 091°07'3 6.5
2018-Jul-20 13:00N 32°31' W 091°06'3 6.6
2018-Jul-20 12:30N 32°28' W 091°06'4 7.1
2018-Jul-20 12:00N 32°26' W 091°02'3 6.4
2018-Jul-20 11:30N 32°24' W 090°59'3 5.6
2018-Jul-20 11:00N 32°21' W 090°59'4 7.1
2018-Jul-20 10:30N 32°21' W 090°55'2 4.8
2018-Jul-20 10:00N 32°18' W 090°55'4 6.9
2018-Jul-20 09:30N 32°16' W 090°58'3 6.7
2018-Jul-20 09:00N 32°12' W 090°59'3 6.8
2018-Jul-20 08:30N 32°09' W 091°00'3 5.5
2018-Jul-20 08:00N 32°07' W 091°03'3 6.5
2018-Jul-20 07:30N 32°08' W 091°06'4 6.1
2018-Jul-20 06:54N 32°05' W 091°04'4 6.8
2018-Jul-20 06:20N 32°01' W 091°05'5 6.7
2018-Jul-20 05:33N 31°59' W 091°10'1 6.7
2018-Jul-20 05:22N 31°58' W 091°11'11 6.1
2018-Jul-20 03:34N 31°50' W 091°21'5 5.9
2018-Jul-20 02:44N 31°46' W 091°22'3 7.4
2018-Jul-20 02:16N 31°43' W 091°24'  
2018-Jul-17 13:07N 30°29' W 091°12'2 2.7
2018-Jul-17 12:27N 30°31' W 091°12'3 6.5
2018-Jul-17 12:00N 30°30' W 091°16'86 4.7
2018-Jul-16 17:36N 31°56' W 091°12'1 8.0
2018-Jul-16 17:26N 31°58' W 091°11'3 6.8
2018-Jul-16 16:58N 31°59' W 091°08'3 6.7
2018-Jul-16 16:30N 32°00' W 091°05'4 6.9
2018-Jul-16 15:56N 32°04' W 091°04'3 7.2
2018-Jul-16 15:30N 32°07' W 091°06'3 5.1
2018-Jul-16 15:00N 32°08' W 091°04'3 6.4
2018-Jul-16 14:30N 32°09' W 091°00'4 7.9
2018-Jul-16 14:00N 32°13' W 090°59'4 7.7
2018-Jul-16 13:30N 32°16' W 090°57'4 8.3
2018-Jul-16 13:00N 32°19' W 090°54'3 6.1
2018-Jul-16 12:30N 32°21' W 090°57'3 6.0
2018-Jul-16 12:00N 32°23' W 091°00'3 6.5
2018-Jul-16 11:30N 32°26' W 091°01'4 8.0
2018-Jul-16 11:00N 32°27' W 091°06'4 7.2
2018-Jul-16 10:31N 32°31' W 091°07'4 7.2
2018-Jul-16 10:01N 32°34' W 091°07'4 7.5
2018-Jul-16 09:30N 32°38' W 091°09'  
Track history (hours):
 
Tides and Currents Weather Stations Pressure Air Temp Water Temp Dewpoint Dewpoint Depression Visibility Wind Speed Wind Dir Waves Ship Positions

Dan Macmillan

Owner: American River Transportation Company, St Louis, MO. More information available from US FCC via Universal Licensing System and Coast Guard Vessel Documentation Center.

Last reported at 2018-Jul-21 03:36 UTC. Time now 2018-Jul-22 12:49 UTC.
Position N 33°42' W 091°13'.

Length 63 m; draft 3 m.

Type: Towing. MMSI: 366984870.

Date/timePositionNaut miles runAvg speedWind from/ knotsBaromVisibWave heightAir tempDewpointWater temp
2018-Jul-21 03:36N 33°42' W 091°13'1 6.6
2018-Jul-21 03:30N 33°41' W 091°14'2 5.0
2018-Jul-21 03:00N 33°39' W 091°12'59 4.8
2018-Jul-20 14:35N 32°40' W 091°07'0 6.8
2018-Jul-20 14:30N 32°40' W 091°08'3 5.9
2018-Jul-20 14:00N 32°37' W 091°09'3 7.0
2018-Jul-20 13:30N 32°34' W 091°07'3 6.5
2018-Jul-20 13:00N 32°31' W 091°06'3 6.6
2018-Jul-20 12:30N 32°28' W 091°06'4 7.1
2018-Jul-20 12:00N 32°26' W 091°02'3 6.4
2018-Jul-20 11:30N 32°24' W 090°59'3 5.6
2018-Jul-20 11:00N 32°21' W 090°59'4 7.1
2018-Jul-20 10:30N 32°21' W 090°55'2 4.8
2018-Jul-20 10:00N 32°18' W 090°55'4 6.9
2018-Jul-20 09:30N 32°16' W 090°58'3 6.7
2018-Jul-20 09:00N 32°12' W 090°59'3 6.8
2018-Jul-20 08:30N 32°09' W 091°00'3 5.5
2018-Jul-20 08:00N 32°07' W 091°03'3 6.5
2018-Jul-20 07:30N 32°08' W 091°06'4 6.1
2018-Jul-20 06:54N 32°05' W 091°04'4 6.8
2018-Jul-20 06:20N 32°01' W 091°05'5 6.7
2018-Jul-20 05:33N 31°59' W 091°10'1 6.7
2018-Jul-20 05:22N 31°58' W 091°11'11 6.1
2018-Jul-20 03:34N 31°50' W 091°21'5 5.9
2018-Jul-20 02:44N 31°46' W 091°22'3 7.4
2018-Jul-20 02:16N 31°43' W 091°24'  
2018-Jul-17 13:07N 30°29' W 091°12'2 2.7
2018-Jul-17 12:27N 30°31' W 091°12'3 6.5
2018-Jul-17 12:00N 30°30' W 091°16'86 4.7
2018-Jul-16 17:36N 31°56' W 091°12'1 8.0
2018-Jul-16 17:26N 31°58' W 091°11'3 6.8
2018-Jul-16 16:58N 31°59' W 091°08'3 6.7
2018-Jul-16 16:30N 32°00' W 091°05'4 6.9
2018-Jul-16 15:56N 32°04' W 091°04'3 7.2
2018-Jul-16 15:30N 32°07' W 091°06'3 5.1
2018-Jul-16 15:00N 32°08' W 091°04'3 6.4
2018-Jul-16 14:30N 32°09' W 091°00'4 7.9
2018-Jul-16 14:00N 32°13' W 090°59'4 7.7
2018-Jul-16 13:30N 32°16' W 090°57'4 8.3
2018-Jul-16 13:00N 32°19' W 090°54'3 6.1
2018-Jul-16 12:30N 32°21' W 090°57'3 6.0
2018-Jul-16 12:00N 32°23' W 091°00'3 6.5
2018-Jul-16 11:30N 32°26' W 091°01'4 8.0
2018-Jul-16 11:00N 32°27' W 091°06'4 7.2
2018-Jul-16 10:31N 32°31' W 091°07'4 7.2
2018-Jul-16 10:01N 32°34' W 091°07'4 7.5
2018-Jul-16 09:30N 32°38' W 091°09'  

Dump ship's entire track history